sensor_id;sensor_type;location;lat;lon;timestamp;pressure;altitude;pressure_sealevel;temperature;humidity
44079;BME280;29744;49.078;12.878;2023-07-16T00:03:01;95954.97;;;20.91;41.14
44079;BME280;29744;49.078;12.878;2023-07-16T00:08:01;95963.94;;;20.92;40.78
44079;BME280;29744;49.078;12.878;2023-07-16T00:13:02;95965.50;;;20.93;41.25
44079;BME280;29744;49.078;12.878;2023-07-16T00:18:03;95985.72;;;20.92;41.35
44079;BME280;29744;49.078;12.878;2023-07-16T00:23:03;95999.38;;;20.92;41.26
44079;BME280;29744;49.078;12.878;2023-07-16T00:28:03;96009.47;;;20.91;41.66
44079;BME280;29744;49.078;12.878;2023-07-16T00:33:04;96011.06;;;20.92;41.52
44079;BME280;29744;49.078;12.878;2023-07-16T00:38:04;96022.31;;;20.91;41.05
44079;BME280;29744;49.078;12.878;2023-07-16T00:43:04;96027.78;;;20.91;41.21
44079;BME280;29744;49.078;12.878;2023-07-16T00:48:06;96063.63;;;20.93;41.71
44079;BME280;29744;49.078;12.878;2023-07-16T00:53:07;96076.47;;;20.92;41.33
44079;BME280;29744;49.078;12.878;2023-07-16T00:58:08;96108.38;;;20.92;41.64
44079;BME280;29744;49.078;12.878;2023-07-16T01:03:12;96133.72;;;20.92;41.13
44079;BME280;29744;49.078;12.878;2023-07-16T01:08:14;96145.41;;;20.93;41.02
44079;BME280;29744;49.078;12.878;2023-07-16T01:13:17;96152.78;;;20.92;41.48
44079;BME280;29744;49.078;12.878;2023-07-16T01:18:17;96170.28;;;20.91;41.32
44079;BME280;29744;49.078;12.878;2023-07-16T01:23:38;96169.88;;;20.89;41.05
44079;BME280;29744;49.078;12.878;2023-07-16T01:34:17;96217.78;;;20.90;41.21
44079;BME280;29744;49.078;12.878;2023-07-16T01:39:18;96279.31;;;20.91;41.29
44079;BME280;29744;49.078;12.878;2023-07-16T01:44:18;96298.41;;;20.91;41.36
44079;BME280;29744;49.078;12.878;2023-07-16T01:49:18;96306.59;;;20.91;41.19
44079;BME280;29744;49.078;12.878;2023-07-16T01:54:19;96276.59;;;20.91;41.26
44079;BME280;29744;49.078;12.878;2023-07-16T01:59:19;96159.41;;;20.91;41.43
44079;BME280;29744;49.078;12.878;2023-07-16T02:04:20;96141.47;;;20.90;41.58
44079;BME280;29744;49.078;12.878;2023-07-16T02:09:21;96167.56;;;20.91;41.32
44079;BME280;29744;49.078;12.878;2023-07-16T02:14:21;96226.75;;;20.91;41.54
44079;BME280;29744;49.078;12.878;2023-07-16T02:19:21;96263.75;;;20.92;41.29
44079;BME280;29744;49.078;12.878;2023-07-16T02:24:22;96287.50;;;20.91;41.30
44079;BME280;29744;49.078;12.878;2023-07-16T02:29:22;96300.34;;;20.91;41.07
44079;BME280;29744;49.078;12.878;2023-07-16T02:34:23;96326.47;;;20.92;41.52
44079;BME280;29744;49.078;12.878;2023-07-16T02:39:23;96359.53;;;20.90;41.38
44079;BME280;29744;49.078;12.878;2023-07-16T02:44:24;96363.03;;;20.91;41.33
44079;BME280;29744;49.078;12.878;2023-07-16T02:49:24;96364.97;;;20.90;41.59
44079;BME280;29744;49.078;12.878;2023-07-16T02:54:24;96386.78;;;20.90;41.24
44079;BME280;29744;49.078;12.878;2023-07-16T02:59:25;96377.81;;;20.90;41.45
44079;BME280;29744;49.078;12.878;2023-07-16T03:04:25;96386.00;;;20.90;41.27
44079;BME280;29744;49.078;12.878;2023-07-16T03:09:25;96375.09;;;20.90;41.32
44079;BME280;29744;49.078;12.878;2023-07-16T03:14:25;96366.13;;;20.89;41.40
44079;BME280;29744;49.078;12.878;2023-07-16T03:19:26;96359.53;;;20.90;41.47
44079;BME280;29744;49.078;12.878;2023-07-16T03:24:26;96366.13;;;20.89;41.31
44079;BME280;29744;49.078;12.878;2023-07-16T03:29:26;96397.69;;;20.90;41.18
44079;BME280;29744;49.078;12.878;2023-07-16T03:34:27;96398.84;;;20.89;41.52
44079;BME280;29744;49.078;12.878;2023-07-16T03:39:27;96412.47;;;20.89;41.47
44079;BME280;29744;49.078;12.878;2023-07-16T03:44:29;96434.28;;;20.89;41.34
44079;BME280;29744;49.078;12.878;2023-07-16T03:49:29;96451.78;;;20.88;40.97
44079;BME280;29744;49.078;12.878;2023-07-16T03:54:29;96462.69;;;20.88;41.38
44079;BME280;29744;49.078;12.878;2023-07-16T03:59:30;96439.31;;;20.87;41.46
44079;BME280;29744;49.078;12.878;2023-07-16T04:04:30;96430.34;;;20.86;41.30
44079;BME280;29744;49.078;12.878;2023-07-16T04:09:30;96433.84;;;20.87;41.13
44079;BME280;29744;49.078;12.878;2023-07-16T04:14:31;96439.31;;;20.87;41.57
44079;BME280;29744;49.078;12.878;2023-07-16T04:19:32;96445.91;;;20.86;41.31
44079;BME280;29744;49.078;12.878;2023-07-16T04:24:35;96444.75;;;20.87;41.41
44079;BME280;29744;49.078;12.878;2023-07-16T04:29:35;96451.38;;;20.86;41.32
44079;BME280;29744;49.078;12.878;2023-07-16T04:34:35;96433.84;;;20.87;41.42
44079;BME280;29744;49.078;12.878;2023-07-16T04:39:35;96446.34;;;20.88;41.46
44079;BME280;29744;49.078;12.878;2023-07-16T04:44:36;96443.63;;;20.88;41.30
44079;BME280;29744;49.078;12.878;2023-07-16T04:49:36;96429.19;;;20.88;41.08
44079;BME280;29744;49.078;12.878;2023-07-16T04:54:37;96430.34;;;20.86;41.12
44079;BME280;29744;49.078;12.878;2023-07-16T04:59:37;96436.59;;;20.87;41.68
44079;BME280;29744;49.078;12.878;2023-07-16T05:04:38;96433.84;;;20.87;41.10
44079;BME280;29744;49.078;12.878;2023-07-16T05:09:38;96437.75;;;20.86;41.31
44079;BME280;29744;49.078;12.878;2023-07-16T05:14:46;96476.69;;;20.86;41.05
44079;BME280;29744;49.078;12.878;2023-07-16T05:19:47;96496.56;;;20.87;41.55
44079;BME280;29744;49.078;12.878;2023-07-16T05:24:47;96498.50;;;20.86;41.43
44079;BME280;29744;49.078;12.878;2023-07-16T05:29:48;96516.78;;;20.86;41.47
44079;BME280;29744;49.078;12.878;2023-07-16T05:34:48;96523.03;;;20.86;41.54
44079;BME280;29744;49.078;12.878;2023-07-16T05:39:48;96540.94;;;20.88;41.32
44079;BME280;29744;49.078;12.878;2023-07-16T05:44:49;96543.69;;;20.88;41.34
44079;BME280;29744;49.078;12.878;2023-07-16T05:49:49;96546.41;;;20.88;41.21
44079;BME280;29744;49.078;12.878;2023-07-16T05:54:49;96558.88;;;20.89;41.25
44079;BME280;29744;49.078;12.878;2023-07-16T05:59:50;96552.66;;;20.88;41.25
44079;BME280;29744;49.078;12.878;2023-07-16T06:04:50;96558.88;;;20.89;41.23
44079;BME280;29744;49.078;12.878;2023-07-16T06:09:50;96560.47;;;20.90;40.98
44079;BME280;29744;49.078;12.878;2023-07-16T06:14:50;96562.81;;;20.91;41.10
44079;BME280;29744;49.078;12.878;2023-07-16T06:19:51;96571.00;;;20.91;41.08
44079;BME280;29744;49.078;12.878;2023-07-16T06:24:51;96583.84;;;20.91;41.61
44079;BME280;29744;49.078;12.878;2023-07-16T06:29:52;96592.81;;;20.91;41.17
44079;BME280;29744;49.078;12.878;2023-07-16T06:34:52;96611.88;;;20.91;41.33
44079;BME280;29744;49.078;12.878;2023-07-16T06:39:52;96611.88;;;20.91;41.46
44079;BME280;29744;49.078;12.878;2023-07-16T06:44:53;96593.16;;;20.90;41.53
44079;BME280;29744;49.078;12.878;2023-07-16T06:49:53;96592.03;;;20.91;41.39
44079;BME280;29744;49.078;12.878;2023-07-16T06:54:54;96589.28;;;20.91;41.10
44079;BME280;29744;49.078;12.878;2023-07-16T06:59:55;96583.84;;;20.91;41.15
44079;BME280;29744;49.078;12.878;2023-07-16T07:04:55;96595.53;;;20.91;41.15
44079;BME280;29744;49.078;12.878;2023-07-16T07:09:55;96594.75;;;20.91;41.18
44079;BME280;29744;49.078;12.878;2023-07-16T07:14:56;96614.63;;;20.91;41.43
44079;BME280;29744;49.078;12.878;2023-07-16T07:19:56;96605.28;;;20.92;41.44
44079;BME280;29744;49.078;12.878;2023-07-16T07:24:56;96624.38;;;20.92;41.22
44079;BME280;29744;49.078;12.878;2023-07-16T07:29:56;96633.69;;;20.91;41.16
44079;BME280;29744;49.078;12.878;2023-07-16T07:34:57;96635.63;;;20.91;41.27
44079;BME280;29744;49.078;12.878;2023-07-16T07:39:58;96648.13;;;20.92;41.34
44079;BME280;29744;49.078;12.878;2023-07-16T07:44:58;96648.13;;;20.92;41.17
44079;BME280;29744;49.078;12.878;2023-07-16T07:49:59;96646.53;;;20.91;41.13
44079;BME280;29744;49.078;12.878;2023-07-16T07:54:59;96652.78;;;20.91;41.21
44079;BME280;29744;49.078;12.878;2023-07-16T07:59:59;96658.22;;;20.91;41.16
44079;BME280;29744;49.078;12.878;2023-07-16T08:05:00;96658.22;;;20.91;41.02
44079;BME280;29744;49.078;12.878;2023-07-16T08:10:00;96660.97;;;20.91;41.02
44079;BME280;29744;49.078;12.878;2023-07-16T08:15:00;96659.81;;;20.92;41.10
44079;BME280;29744;49.078;12.878;2023-07-16T08:20:01;96674.22;;;20.93;40.98
44079;BME280;29744;49.078;12.878;2023-07-16T08:25:01;96675.03;;;20.93;41.27
44079;BME280;29744;49.078;12.878;2023-07-16T08:30:03;96671.50;;;20.93;41.00
44079;BME280;29744;49.078;12.878;2023-07-16T08:35:04;96673.88;;;20.94;41.15
44079;BME280;29744;49.078;12.878;2023-07-16T08:40:05;96676.59;;;20.94;41.30
44079;BME280;29744;49.078;12.878;2023-07-16T08:45:10;96673.09;;;20.94;41.16
44079;BME280;29744;49.078;12.878;2023-07-16T08:50:11;96684.00;;;20.94;41.02
44079;BME280;29744;49.078;12.878;2023-07-16T08:55:12;96673.09;;;20.94;41.07
44079;BME280;29744;49.078;12.878;2023-07-16T09:00:14;96677.38;;;20.95;40.86
44079;BME280;29744;49.078;12.878;2023-07-16T09:05:20;96676.25;;;20.96;41.32
44079;BME280;29744;49.078;12.878;2023-07-16T09:10:20;96669.22;;;20.95;41.17
44079;BME280;29744;49.078;12.878;2023-07-16T09:15:21;96666.47;;;20.95;41.34
44079;BME280;29744;49.078;12.878;2023-07-16T09:20:21;96666.13;;;20.96;41.18
44079;BME280;29744;49.078;12.878;2023-07-16T09:25:30;96665.34;;;20.96;41.05
44079;BME280;29744;49.078;12.878;2023-07-16T09:30:32;96664.97;;;20.97;41.20
44079;BME280;29744;49.078;12.878;2023-07-16T09:35:35;96653.28;;;20.97;41.42
44079;BME280;29744;49.078;12.878;2023-07-16T09:40:37;96637.72;;;20.97;41.32
44079;BME280;29744;49.078;12.878;2023-07-16T09:45:38;96634.97;;;20.97;41.30
44079;BME280;29744;49.078;12.878;2023-07-16T09:50:42;96633.03;;;20.98;41.12
44079;BME280;29744;49.078;12.878;2023-07-16T09:55:46;96626.81;;;20.97;41.50
44079;BME280;29744;49.078;12.878;2023-07-16T10:00:48;96608.09;;;20.96;41.31
44079;BME280;29744;49.078;12.878;2023-07-16T10:05:49;96600.25;;;20.94;41.32
44079;BME280;29744;49.078;12.878;2023-07-16T10:10:54;96589.00;;;20.96;41.25
44079;BME280;29744;49.078;12.878;2023-07-16T10:15:58;96581.97;;;20.95;41.32
44079;BME280;29744;49.078;12.878;2023-07-16T10:21:03;96599.91;;;20.96;41.24
44079;BME280;29744;49.078;12.878;2023-07-16T10:26:09;96612.75;;;20.95;41.24
44079;BME280;29744;49.078;12.878;2023-07-16T10:31:21;96613.91;;;20.94;41.18
44079;BME280;29744;49.078;12.878;2023-07-16T10:36:22;96607.66;;;20.94;41.52
44079;BME280;29744;49.078;12.878;2023-07-16T10:41:22;96616.63;;;20.94;41.49
44079;BME280;29744;49.078;12.878;2023-07-16T10:46:22;96611.16;;;20.94;41.43
44079;BME280;29744;49.078;12.878;2023-07-16T10:51:27;96613.53;;;20.96;40.99
44079;BME280;29744;49.078;12.878;2023-07-16T10:56:27;96608.09;;;20.96;41.31
44079;BME280;29744;49.078;12.878;2023-07-16T11:01:29;96606.16;;;20.96;41.36
44079;BME280;29744;49.078;12.878;2023-07-16T11:06:30;96594.81;;;20.94;41.33
44079;BME280;29744;49.078;12.878;2023-07-16T11:11:30;96586.63;;;20.94;41.72
44079;BME280;29744;49.078;12.878;2023-07-16T11:16:37;96601.06;;;20.95;41.38
44079;BME280;29744;49.078;12.878;2023-07-16T11:21:37;96605.34;;;20.96;41.13
44079;BME280;29744;49.078;12.878;2023-07-16T11:26:38;96599.91;;;20.96;41.28
44079;BME280;29744;49.078;12.878;2023-07-16T11:31:39;96591.72;;;20.96;41.49
44079;BME280;29744;49.078;12.878;2023-07-16T11:36:42;96588.22;;;20.95;41.13
44079;BME280;29744;49.078;12.878;2023-07-16T11:41:53;96581.53;;;20.93;41.46
44079;BME280;29744;49.078;12.878;2023-07-16T11:46:58;96578.44;;;20.94;41.70
44079;BME280;29744;49.078;12.878;2023-07-16T11:51:58;96572.22;;;20.94;41.43
44079;BME280;29744;49.078;12.878;2023-07-16T11:56:59;96577.31;;;20.95;41.08
44079;BME280;29744;49.078;12.878;2023-07-16T12:01:59;96573.00;;;20.94;41.34
44079;BME280;29744;49.078;12.878;2023-07-16T12:07:00;96562.88;;;20.95;41.57
44079;BME280;29744;49.078;12.878;2023-07-16T12:12:01;96555.84;;;20.94;41.16
44079;BME280;29744;49.078;12.878;2023-07-16T12:17:01;96561.31;;;20.94;40.99
44079;BME280;29744;49.078;12.878;2023-07-16T12:22:02;96561.31;;;20.94;41.12
44079;BME280;29744;49.078;12.878;2023-07-16T12:27:03;96549.63;;;20.93;41.42
44079;BME280;29744;49.078;12.878;2023-07-16T12:32:04;96551.19;;;20.94;41.03
44079;BME280;29744;49.078;12.878;2023-07-16T12:37:05;96548.47;;;20.94;41.02
44079;BME280;29744;49.078;12.878;2023-07-16T12:42:05;96559.72;;;20.93;41.76
44079;BME280;29744;49.078;12.878;2023-07-16T12:47:06;96560.53;;;20.93;41.28
44079;BME280;29744;49.078;12.878;2023-07-16T12:52:08;96557.78;;;20.93;41.47
44079;BME280;29744;49.078;12.878;2023-07-16T12:57:08;96548.81;;;20.93;41.46
44079;BME280;29744;49.078;12.878;2023-07-16T13:02:09;96549.63;;;20.93;41.42
44079;BME280;29744;49.078;12.878;2023-07-16T13:07:09;96551.19;;;20.94;41.44
44079;BME280;29744;49.078;12.878;2023-07-16T13:12:09;96551.97;;;20.95;41.43
44079;BME280;29744;49.078;12.878;2023-07-16T13:17:10;96544.97;;;20.94;41.41
44079;BME280;29744;49.078;12.878;2023-07-16T13:22:10;96548.81;;;20.93;41.37
44079;BME280;29744;49.078;12.878;2023-07-16T13:27:20;96537.94;;;20.93;41.35
44079;BME280;29744;49.078;12.878;2023-07-16T13:32:20;96534.84;;;20.94;41.25
44079;BME280;29744;49.078;12.878;2023-07-16T13:37:21;96523.94;;;20.94;41.18
44079;BME280;29744;49.078;12.878;2023-07-16T13:42:21;96530.16;;;20.95;41.25
44079;BME280;29744;49.078;12.878;2023-07-16T13:47:21;96523.16;;;20.94;41.46
44079;BME280;29744;49.078;12.878;2023-07-16T13:52:22;96525.88;;;20.94;41.85
44079;BME280;29744;49.078;12.878;2023-07-16T13:57:22;96511.44;;;20.93;41.42
44079;BME280;29744;49.078;12.878;2023-07-16T14:02:22;96523.16;;;20.94;41.32
44079;BME280;29744;49.078;12.878;2023-07-16T14:07:22;96514.19;;;20.93;41.38
44079;BME280;29744;49.078;12.878;2023-07-16T14:12:23;96498.63;;;20.94;41.38
44079;BME280;29744;49.078;12.878;2023-07-16T14:17:23;96496.66;;;20.94;41.45
44079;BME280;29744;49.078;12.878;2023-07-16T14:22:23;96497.47;;;20.95;41.39
44079;BME280;29744;49.078;12.878;2023-07-16T14:27:27;96493.16;;;20.94;41.38
44079;BME280;29744;49.078;12.878;2023-07-16T14:32:28;96493.94;;;20.94;41.40
44079;BME280;29744;49.078;12.878;2023-07-16T14:37:29;96492.78;;;20.95;41.70
44079;BME280;29744;49.078;12.878;2023-07-16T14:42:29;96485.41;;;20.96;41.69
44079;BME280;29744;49.078;12.878;2023-07-16T14:47:30;96481.88;;;20.95;41.51
44079;BME280;29744;49.078;12.878;2023-07-16T14:52:30;96482.69;;;20.96;41.30
44079;BME280;29744;49.078;12.878;2023-07-16T14:57:30;96484.63;;;20.95;41.70
44079;BME280;29744;49.078;12.878;2023-07-16T15:02:30;96480.31;;;20.94;41.13
44079;BME280;29744;49.078;12.878;2023-07-16T15:07:31;96482.69;;;20.96;41.67
44079;BME280;29744;49.078;12.878;2023-07-16T15:12:31;96472.56;;;20.96;41.38
44079;BME280;29744;49.078;12.878;2023-07-16T15:17:32;96467.91;;;20.97;41.20
44079;BME280;29744;49.078;12.878;2023-07-16T15:22:32;96471.41;;;20.97;41.48
44079;BME280;29744;49.078;12.878;2023-07-16T15:27:33;96469.84;;;20.96;41.36
44079;BME280;29744;49.078;12.878;2023-07-16T15:32:34;96474.13;;;20.97;41.59
44079;BME280;29744;49.078;12.878;2023-07-16T15:37:34;96462.44;;;20.97;41.13
44079;BME280;29744;49.078;12.878;2023-07-16T15:42:34;96470.25;;;20.98;41.43
44079;BME280;29744;49.078;12.878;2023-07-16T15:47:35;96481.16;;;20.98;41.80
44079;BME280;29744;49.078;12.878;2023-07-16T15:52:36;96483.47;;;20.96;41.52
44079;BME280;29744;49.078;12.878;2023-07-16T15:57:36;96485.81;;;20.98;41.44
44079;BME280;29744;49.078;12.878;2023-07-16T16:02:37;96482.31;;;20.97;41.48
44079;BME280;29744;49.078;12.878;2023-07-16T16:07:42;96474.13;;;20.97;41.63
44079;BME280;29744;49.078;12.878;2023-07-16T16:12:43;96471.41;;;20.97;41.44
44079;BME280;29744;49.078;12.878;2023-07-16T16:17:43;96476.84;;;20.97;41.77
44079;BME280;29744;49.078;12.878;2023-07-16T16:22:43;96470.63;;;20.97;41.55
44079;BME280;29744;49.078;12.878;2023-07-16T16:27:44;96466.75;;;20.98;41.51
44079;BME280;29744;49.078;12.878;2023-07-16T16:32:45;96467.91;;;20.97;41.45
44079;BME280;29744;49.078;12.878;2023-07-16T16:37:47;96474.13;;;20.97;41.61
44079;BME280;29744;49.078;12.878;2023-07-16T16:42:48;96468.69;;;20.97;41.80
44079;BME280;29744;49.078;12.878;2023-07-16T16:47:48;96462.06;;;20.98;41.55
44079;BME280;29744;49.078;12.878;2023-07-16T16:52:49;96465.97;;;20.97;41.24
44079;BME280;29744;49.078;12.878;2023-07-16T16:57:51;96475.72;;;20.98;41.23
44079;BME280;29744;49.078;12.878;2023-07-16T17:02:51;96471.03;;;20.99;41.82
44079;BME280;29744;49.078;12.878;2023-07-16T17:07:52;96474.13;;;20.97;41.48
44079;BME280;29744;49.078;12.878;2023-07-16T17:12:52;96474.91;;;20.98;41.51
44079;BME280;29744;49.078;12.878;2023-07-16T17:17:52;96478.81;;;20.97;41.61
44079;BME280;29744;49.078;12.878;2023-07-16T17:22:54;96479.59;;;20.97;41.83
44079;BME280;29744;49.078;12.878;2023-07-16T17:27:54;96472.97;;;20.98;41.68
44079;BME280;29744;49.078;12.878;2023-07-16T17:32:54;96476.84;;;20.97;41.76
44079;BME280;29744;49.078;12.878;2023-07-16T17:37:54;96476.06;;;20.97;41.32
44079;BME280;29744;49.078;12.878;2023-07-16T17:42:55;96485.03;;;20.97;41.21
44079;BME280;29744;49.078;12.878;2023-07-16T17:47:55;96490.50;;;20.97;41.49
44079;BME280;29744;49.078;12.878;2023-07-16T17:52:55;96503.34;;;20.97;41.79
44079;BME280;29744;49.078;12.878;2023-07-16T17:57:56;96494.38;;;20.96;41.40
44079;BME280;29744;49.078;12.878;2023-07-16T18:02:56;96479.59;;;20.97;41.36
44079;BME280;29744;49.078;12.878;2023-07-16T18:07:57;96490.50;;;20.97;41.57
44079;BME280;29744;49.078;12.878;2023-07-16T18:12:57;96491.66;;;20.96;41.56
44079;BME280;29744;49.078;12.878;2023-07-16T18:17:58;96483.47;;;20.96;41.68
44079;BME280;29744;49.078;12.878;2023-07-16T18:22:58;96495.16;;;20.97;41.50
44079;BME280;29744;49.078;12.878;2023-07-16T18:27:58;96487.34;;;20.95;41.74
44079;BME280;29744;49.078;12.878;2023-07-16T18:32:58;96498.25;;;20.95;41.81
44079;BME280;29744;49.078;12.878;2023-07-16T18:37:59;96491.66;;;20.96;41.59
44079;BME280;29744;49.078;12.878;2023-07-16T18:42:59;96502.13;;;20.94;41.82
44079;BME280;29744;49.078;12.878;2023-07-16T18:47:59;96499.41;;;20.94;41.91
44079;BME280;29744;49.078;12.878;2023-07-16T18:53:00;96502.91;;;20.95;41.41
44079;BME280;29744;49.078;12.878;2023-07-16T18:58:01;96511.44;;;20.93;41.97
44079;BME280;29744;49.078;12.878;2023-07-16T19:03:01;96513.03;;;20.94;41.64
44079;BME280;29744;49.078;12.878;2023-07-16T19:08:02;96507.56;;;20.94;41.85
44079;BME280;29744;49.078;12.878;2023-07-16T19:13:02;96491.22;;;20.94;41.76
44079;BME280;29744;49.078;12.878;2023-07-16T19:18:02;96495.09;;;20.93;41.48
44079;BME280;29744;49.078;12.878;2023-07-16T19:23:03;96505.22;;;20.93;41.33
44079;BME280;29744;49.078;12.878;2023-07-16T19:28:03;96511.44;;;20.93;41.60
44079;BME280;29744;49.078;12.878;2023-07-16T19:33:04;96521.56;;;20.93;41.53
44079;BME280;29744;49.078;12.878;2023-07-16T19:38:04;96518.06;;;20.92;41.76
44079;BME280;29744;49.078;12.878;2023-07-16T19:43:04;96505.56;;;20.91;41.63
44079;BME280;29744;49.078;12.878;2023-07-16T19:48:04;96498.97;;;20.92;41.50
44079;BME280;29744;49.078;12.878;2023-07-16T19:53:07;96516.47;;;20.91;41.32
44079;BME280;29744;49.078;12.878;2023-07-16T19:58:07;96519.63;;;20.93;41.70
44079;BME280;29744;49.078;12.878;2023-07-16T20:03:08;96515.34;;;20.92;41.75
44079;BME280;29744;49.078;12.878;2023-07-16T20:08:09;96517.28;;;20.92;41.64
44079;BME280;29744;49.078;12.878;2023-07-16T20:13:13;96522.72;;;20.92;41.58
44079;BME280;29744;49.078;12.878;2023-07-16T20:18:15;96526.22;;;20.92;41.44
44079;BME280;29744;49.078;12.878;2023-07-16T20:23:15;96525.44;;;20.92;41.91
44079;BME280;29744;49.078;12.878;2023-07-16T20:28:17;96520.00;;;20.92;41.32
44079;BME280;29744;49.078;12.878;2023-07-16T20:33:18;96520.00;;;20.92;41.63
44079;BME280;29744;49.078;12.878;2023-07-16T20:38:19;96528.97;;;20.92;41.67
44079;BME280;29744;49.078;12.878;2023-07-16T20:43:19;96530.09;;;20.91;41.86
44079;BME280;29744;49.078;12.878;2023-07-16T20:48:19;96544.09;;;20.90;41.61
44079;BME280;29744;49.078;12.878;2023-07-16T20:53:20;96553.06;;;20.90;41.87
44079;BME280;29744;49.078;12.878;2023-07-16T20:58:20;96562.03;;;20.91;42.09
44079;BME280;29744;49.078;12.878;2023-07-16T21:03:20;96561.25;;;20.90;41.89
44079;BME280;29744;49.078;12.878;2023-07-16T21:08:21;96558.88;;;20.89;41.98
44079;BME280;29744;49.078;12.878;2023-07-16T21:13:21;96570.56;;;20.89;41.54
44079;BME280;29744;49.078;12.878;2023-07-16T21:18:21;96569.78;;;20.89;42.15
44079;BME280;29744;49.078;12.878;2023-07-16T21:23:22;96577.19;;;20.88;41.58
44079;BME280;29744;49.078;12.878;2023-07-16T21:28:23;96566.28;;;20.88;41.69
44079;BME280;29744;49.078;12.878;2023-07-16T21:33:24;96579.91;;;20.88;41.77
44079;BME280;29744;49.078;12.878;2023-07-16T21:38:24;96579.91;;;20.88;41.48
44079;BME280;29744;49.078;12.878;2023-07-16T21:43:24;96584.56;;;20.88;42.04
44079;BME280;29744;49.078;12.878;2023-07-16T21:48:24;96576.38;;;20.88;41.84
44079;BME280;29744;49.078;12.878;2023-07-16T21:53:26;96573.66;;;20.88;41.93
44079;BME280;29744;49.078;12.878;2023-07-16T21:58:26;96574.81;;;20.86;42.01
44079;BME280;29744;49.078;12.878;2023-07-16T22:03:27;96565.84;;;20.86;42.18
44079;BME280;29744;49.078;12.878;2023-07-16T22:08:28;96567.44;;;20.87;42.17
44079;BME280;29744;49.078;12.878;2023-07-16T22:13:28;96574.03;;;20.86;41.86
44079;BME280;29744;49.078;12.878;2023-07-16T22:18:29;96572.09;;;20.86;41.95
44079;BME280;29744;49.078;12.878;2023-07-16T22:23:29;96560.41;;;20.86;41.91
44079;BME280;29744;49.078;12.878;2023-07-16T22:28:29;96562.75;;;20.88;41.99
44079;BME280;29744;49.078;12.878;2023-07-16T22:33:30;96574.03;;;20.86;41.74
44079;BME280;29744;49.078;12.878;2023-07-16T22:38:31;96562.34;;;20.85;41.80
44079;BME280;29744;49.078;12.878;2023-07-16T22:43:31;96564.28;;;20.85;41.95
44079;BME280;29744;49.078;12.878;2023-07-16T22:48:33;96556.88;;;20.85;41.93
44079;BME280;29744;49.078;12.878;2023-07-16T22:53:38;96562.34;;;20.85;42.00
44079;BME280;29744;49.078;12.878;2023-07-16T22:58:41;96569.72;;;20.85;41.57
44079;BME280;29744;49.078;12.878;2023-07-16T23:03:41;96571.66;;;20.84;42.00
44079;BME280;29744;49.078;12.878;2023-07-16T23:08:42;96575.16;;;20.85;41.85
44079;BME280;29744;49.078;12.878;2023-07-16T23:13:42;96591.53;;;20.85;41.56
44079;BME280;29744;49.078;12.878;2023-07-16T23:18:42;96583.34;;;20.85;41.73
44079;BME280;29744;49.078;12.878;2023-07-16T23:23:43;96581.78;;;20.84;41.89
44079;BME280;29744;49.078;12.878;2023-07-16T23:28:43;96586.88;;;20.85;41.77
44079;BME280;29744;49.078;12.878;2023-07-16T23:33:43;96597.78;;;20.85;42.16
44079;BME280;29744;49.078;12.878;2023-07-16T23:38:44;96593.47;;;20.84;41.94
44079;BME280;29744;49.078;12.878;2023-07-16T23:43:44;96606.31;;;20.84;41.70
44079;BME280;29744;49.078;12.878;2023-07-16T23:48:45;96591.88;;;20.83;41.89
44079;BME280;29744;49.078;12.878;2023-07-16T23:53:45;96607.88;;;20.85;41.63
44079;BME280;29744;49.078;12.878;2023-07-16T23:58:47;96592.31;;;20.85;41.43
